sensor_id;sensor_type;location;lat;lon;timestamp;temperature;humidity
67893;DHT22;54688;52.376;16.744;2023-04-01T00:00:19;7.9;90
67893;DHT22;54688;52.376;16.744;2023-04-01T00:03:49;7.9;90
67893;DHT22;54688;52.376;16.744;2023-04-01T00:06:51;7.9;90
67893;DHT22;54688;52.376;16.744;2023-04-01T00:09:53;8;90
67893;DHT22;54688;52.376;16.744;2023-04-01T00:12:54;8;90
67893;DHT22;54688;52.376;16.744;2023-04-01T00:15:56;8;90
67893;DHT22;54688;52.376;16.744;2023-04-01T00:18:59;8;90
67893;DHT22;54688;52.376;16.744;2023-04-01T00:22:02;7.9;90
67893;DHT22;54688;52.376;16.744;2023-04-01T00:25:04;8;90
67893;DHT22;54688;52.376;16.744;2023-04-01T00:28:07;8;90.4
67893;DHT22;54688;52.376;16.744;2023-04-01T00:31:10;8;90
67893;DHT22;54688;52.376;16.744;2023-04-01T00:34:13;8;90
67893;DHT22;54688;52.376;16.744;2023-04-01T00:37:15;8;90
67893;DHT22;54688;52.376;16.744;2023-04-01T00:40:22;8;90
67893;DHT22;54688;52.376;16.744;2023-04-01T00:43:26;8;90
67893;DHT22;54688;52.376;16.744;2023-04-01T00:46:28;8;90
67893;DHT22;54688;52.376;16.744;2023-04-01T00:52:30;8.1;90
67893;DHT22;54688;52.376;16.744;2023-04-01T00:55:33;8.1;89.9
67893;DHT22;54688;52.376;16.744;2023-04-01T00:58:40;8.1;89.9
67893;DHT22;54688;52.376;16.744;2023-04-01T01:01:45;8.1;89.9
67893;DHT22;54688;52.376;16.744;2023-04-01T01:04:47;8.2;89.9
67893;DHT22;54688;52.376;16.744;2023-04-01T01:07:51;8.2;90
67893;DHT22;54688;52.376;16.744;2023-04-01T01:11:02;8.2;89.9
67893;DHT22;54688;52.376;16.744;2023-04-01T01:14:12;8.2;89.9
67893;DHT22;54688;52.376;16.744;2023-04-01T01:17:31;8.2;89.8
67893;DHT22;54688;52.376;16.744;2023-04-01T01:20:44;8.2;89.6
67893;DHT22;54688;52.376;16.744;2023-04-01T01:24:05;8.2;89.5
67893;DHT22;54688;52.376;16.744;2023-04-01T01:27:15;8.2;89.5
67893;DHT22;54688;52.376;16.744;2023-04-01T01:30:21;8.2;89.5
67893;DHT22;54688;52.376;16.744;2023-04-01T01:33:36;8.1;89.5
67893;DHT22;54688;52.376;16.744;2023-04-01T01:36:51;8.1;89.6
67893;DHT22;54688;52.376;16.744;2023-04-01T01:39:58;8.1;89.7
67893;DHT22;54688;52.376;16.744;2023-04-01T01:43:04;8.1;89.6
67893;DHT22;54688;52.376;16.744;2023-04-01T01:46:09;8.1;89.6
67893;DHT22;54688;52.376;16.744;2023-04-01T01:49:13;8.1;89.6
67893;DHT22;54688;52.376;16.744;2023-04-01T01:52:17;8.2;89.7
67893;DHT22;54688;52.376;16.744;2023-04-01T01:55:24;8.2;89.7
67893;DHT22;54688;52.376;16.744;2023-04-01T01:58:29;8.1;89.5
67893;DHT22;54688;52.376;16.744;2023-04-01T02:01:35;8.1;89.5
67893;DHT22;54688;52.376;16.744;2023-04-01T02:04:42;8.1;89.5
67893;DHT22;54688;52.376;16.744;2023-04-01T02:10:45;8.1;89.5
67893;DHT22;54688;52.376;16.744;2023-04-01T02:13:58;8.1;89.4
67893;DHT22;54688;52.376;16.744;2023-04-01T02:17:05;8.1;89.6
67893;DHT22;54688;52.376;16.744;2023-04-01T02:20:12;8.1;89.6
67893;DHT22;54688;52.376;16.744;2023-04-01T02:23:17;8.1;89.7
67893;DHT22;54688;52.376;16.744;2023-04-01T02:26:19;8.1;89.6
67893;DHT22;54688;52.376;16.744;2023-04-01T02:29:23;8.1;89.5
67893;DHT22;54688;52.376;16.744;2023-04-01T02:32:26;8.1;89.6
67893;DHT22;54688;52.376;16.744;2023-04-01T02:35:32;8.1;89.7
67893;DHT22;54688;52.376;16.744;2023-04-01T02:38:35;8.1;89.7
67893;DHT22;54688;52.376;16.744;2023-04-01T02:41:38;8.1;89.8
67893;DHT22;54688;52.376;16.744;2023-04-01T02:44:41;8.1;90
67893;DHT22;54688;52.376;16.744;2023-04-01T02:47:43;8.1;90
67893;DHT22;54688;52.376;16.744;2023-04-01T02:50:45;8.1;89.9
67893;DHT22;54688;52.376;16.744;2023-04-01T02:53:47;8.1;89.8
67893;DHT22;54688;52.376;16.744;2023-04-01T02:56:49;8.2;89.7
67893;DHT22;54688;52.376;16.744;2023-04-01T02:59:51;8.2;89.7
67893;DHT22;54688;52.376;16.744;2023-04-01T03:02:53;8.2;89.8
67893;DHT22;54688;52.376;16.744;2023-04-01T03:05:56;8.2;89.9
67893;DHT22;54688;52.376;16.744;2023-04-01T03:08:58;8.1;89.8
67893;DHT22;54688;52.376;16.744;2023-04-01T03:11:59;8.1;89.9
67893;DHT22;54688;52.376;16.744;2023-04-01T03:15:03;8.1;89.8
67893;DHT22;54688;52.376;16.744;2023-04-01T03:18:06;8.1;90
67893;DHT22;54688;52.376;16.744;2023-04-01T03:21:15;8.1;90
67893;DHT22;54688;52.376;16.744;2023-04-01T03:24:19;8.1;90
67893;DHT22;54688;52.376;16.744;2023-04-01T03:27:22;8.1;90.2
67893;DHT22;54688;52.376;16.744;2023-04-01T03:30:24;8.1;90
67893;DHT22;54688;52.376;16.744;2023-04-01T03:33:26;8.1;90
67893;DHT22;54688;52.376;16.744;2023-04-01T03:36:28;8.1;90
67893;DHT22;54688;52.376;16.744;2023-04-01T03:39:31;8.1;90
67893;DHT22;54688;52.376;16.744;2023-04-01T03:42:33;8.1;90
67893;DHT22;54688;52.376;16.744;2023-04-01T03:45:35;8.1;90
67893;DHT22;54688;52.376;16.744;2023-04-01T03:48:38;8;89.9
67893;DHT22;54688;52.376;16.744;2023-04-01T03:51:41;8.1;90
67893;DHT22;54688;52.376;16.744;2023-04-01T03:54:44;8;90
67893;DHT22;54688;52.376;16.744;2023-04-01T03:57:46;8;90.5
67893;DHT22;54688;52.376;16.744;2023-04-01T04:00:48;8;90.1
67893;DHT22;54688;52.376;16.744;2023-04-01T04:03:51;8;90
67893;DHT22;54688;52.376;16.744;2023-04-01T04:06:53;7.9;90.1
67893;DHT22;54688;52.376;16.744;2023-04-01T04:09:55;7.9;90.1
67893;DHT22;54688;52.376;16.744;2023-04-01T04:12:58;7.9;90.1
67893;DHT22;54688;52.376;16.744;2023-04-01T04:16:00;7.9;90.1
67893;DHT22;54688;52.376;16.744;2023-04-01T04:19:03;7.8;90.2
67893;DHT22;54688;52.376;16.744;2023-04-01T04:22:05;7.8;90.2
67893;DHT22;54688;52.376;16.744;2023-04-01T04:25:07;7.8;90.3
67893;DHT22;54688;52.376;16.744;2023-04-01T04:28:10;7.8;90.3
67893;DHT22;54688;52.376;16.744;2023-04-01T04:31:13;7.8;90.3
67893;DHT22;54688;52.376;16.744;2023-04-01T04:34:19;7.8;90.3
67893;DHT22;54688;52.376;16.744;2023-04-01T04:37:22;7.7;90.2
67893;DHT22;54688;52.376;16.744;2023-04-01T04:40:24;7.7;90.3
67893;DHT22;54688;52.376;16.744;2023-04-01T04:43:26;7.6;90.3
67893;DHT22;54688;52.376;16.744;2023-04-01T04:46:28;7.6;90.3
67893;DHT22;54688;52.376;16.744;2023-04-01T04:49:30;7.6;90.4
67893;DHT22;54688;52.376;16.744;2023-04-01T04:52:32;7.6;90.4
67893;DHT22;54688;52.376;16.744;2023-04-01T04:55:34;7.6;90.4
67893;DHT22;54688;52.376;16.744;2023-04-01T04:58:37;7.6;90.4
67893;DHT22;54688;52.376;16.744;2023-04-01T05:01:40;7.7;90.5
67893;DHT22;54688;52.376;16.744;2023-04-01T05:04:43;7.7;90.4
67893;DHT22;54688;52.376;16.744;2023-04-01T05:07:45;7.7;90.4
67893;DHT22;54688;52.376;16.744;2023-04-01T05:10:48;7.8;90.3
67893;DHT22;54688;52.376;16.744;2023-04-01T05:13:50;7.8;90.3
67893;DHT22;54688;52.376;16.744;2023-04-01T05:16:52;7.8;90.3
67893;DHT22;54688;52.376;16.744;2023-04-01T05:19:54;7.8;90.2
67893;DHT22;54688;52.376;16.744;2023-04-01T05:22:56;7.8;90.2
67893;DHT22;54688;52.376;16.744;2023-04-01T05:25:58;7.8;90.2
67893;DHT22;54688;52.376;16.744;2023-04-01T05:29:00;7.9;90.3
67893;DHT22;54688;52.376;16.744;2023-04-01T05:32:02;7.8;90.2
67893;DHT22;54688;52.376;16.744;2023-04-01T05:35:05;7.8;90.6
67893;DHT22;54688;52.376;16.744;2023-04-01T05:38:08;7.8;90.2
67893;DHT22;54688;52.376;16.744;2023-04-01T05:41:11;7.8;90.2
67893;DHT22;54688;52.376;16.744;2023-04-01T05:44:13;7.8;90.3
67893;DHT22;54688;52.376;16.744;2023-04-01T05:47:16;7.9;90.3
67893;DHT22;54688;52.376;16.744;2023-04-01T05:50:18;7.9;90.3
67893;DHT22;54688;52.376;16.744;2023-04-01T05:53:20;7.9;90.3
67893;DHT22;54688;52.376;16.744;2023-04-01T05:56:23;7.9;90.3
67893;DHT22;54688;52.376;16.744;2023-04-01T05:59:25;7.9;90.3
67893;DHT22;54688;52.376;16.744;2023-04-01T06:02:27;7.9;90.3
67893;DHT22;54688;52.376;16.744;2023-04-01T06:05:38;7.9;90.3
67893;DHT22;54688;52.376;16.744;2023-04-01T06:08:41;7.9;90.2
67893;DHT22;54688;52.376;16.744;2023-04-01T06:11:48;8;90.2
67893;DHT22;54688;52.376;16.744;2023-04-01T06:15:01;8;90.2
67893;DHT22;54688;52.376;16.744;2023-04-01T06:18:31;8;90.1
67893;DHT22;54688;52.376;16.744;2023-04-01T06:21:48;8;90.2
67893;DHT22;54688;52.376;16.744;2023-04-01T06:25:08;8;90.2
67893;DHT22;54688;52.376;16.744;2023-04-01T06:28:33;8;90.2
67893;DHT22;54688;52.376;16.744;2023-04-01T06:31:50;8;90.2
67893;DHT22;54688;52.376;16.744;2023-04-01T06:35:05;8;90.3
67893;DHT22;54688;52.376;16.744;2023-04-01T06:38:29;8.1;90.4
67893;DHT22;54688;52.376;16.744;2023-04-01T06:41:52;8.1;90.3
67893;DHT22;54688;52.376;16.744;2023-04-01T06:45:11;8.1;90.1
67893;DHT22;54688;52.376;16.744;2023-04-01T06:48:29;8.1;90.1
67893;DHT22;54688;52.376;16.744;2023-04-01T06:51:43;8.1;90.1
67893;DHT22;54688;52.376;16.744;2023-04-01T06:54:53;8.2;90.1
67893;DHT22;54688;52.376;16.744;2023-04-01T06:58:03;8.2;90.1
67893;DHT22;54688;52.376;16.744;2023-04-01T07:01:09;8.2;90.5
67893;DHT22;54688;52.376;16.744;2023-04-01T07:04:17;8.2;90.2
67893;DHT22;54688;52.376;16.744;2023-04-01T07:07:24;8.2;90.2
67893;DHT22;54688;52.376;16.744;2023-04-01T07:10:33;8.2;90.2
67893;DHT22;54688;52.376;16.744;2023-04-01T07:13:44;8.2;90.3
67893;DHT22;54688;52.376;16.744;2023-04-01T07:16:51;8.3;90.2
67893;DHT22;54688;52.376;16.744;2023-04-01T07:19:59;8.2;90.2
67893;DHT22;54688;52.376;16.744;2023-04-01T07:23:06;8.3;90.4
67893;DHT22;54688;52.376;16.744;2023-04-01T07:26:15;8.3;90.4
67893;DHT22;54688;52.376;16.744;2023-04-01T07:29:18;8.3;90.4
67893;DHT22;54688;52.376;16.744;2023-04-01T07:32:22;8.4;90.4
67893;DHT22;54688;52.376;16.744;2023-04-01T07:35:33;8.4;90.4
67893;DHT22;54688;52.376;16.744;2023-04-01T07:41:40;8.4;90.4
67893;DHT22;54688;52.376;16.744;2023-04-01T07:44:51;8.4;90.4
67893;DHT22;54688;52.376;16.744;2023-04-01T07:48:05;8.5;90.5
67893;DHT22;54688;52.376;16.744;2023-04-01T07:51:16;8.5;90.5
67893;DHT22;54688;52.376;16.744;2023-04-01T07:54:22;8.6;90.4
67893;DHT22;54688;52.376;16.744;2023-04-01T07:57:30;8.6;90.4
67893;DHT22;54688;52.376;16.744;2023-04-01T08:00:42;8.7;90.5
67893;DHT22;54688;52.376;16.744;2023-04-01T08:03:55;8.7;90.3
67893;DHT22;54688;52.376;16.744;2023-04-01T08:07:09;8.8;90.4
67893;DHT22;54688;52.376;16.744;2023-04-01T08:10:16;8.8;90.4
67893;DHT22;54688;52.376;16.744;2023-04-01T08:13:26;8.9;90.3
67893;DHT22;54688;52.376;16.744;2023-04-01T08:16:36;9;90.1
67893;DHT22;54688;52.376;16.744;2023-04-01T08:19:48;9.1;90.2
67893;DHT22;54688;52.376;16.744;2023-04-01T08:22:59;9.2;90.2
67893;DHT22;54688;52.376;16.744;2023-04-01T08:26:06;9.2;89.8
67893;DHT22;54688;52.376;16.744;2023-04-01T08:29:14;9.2;89.6
67893;DHT22;54688;52.376;16.744;2023-04-01T08:32:20;9.2;89.7
67893;DHT22;54688;52.376;16.744;2023-04-01T08:35:28;9.3;89.9
67893;DHT22;54688;52.376;16.744;2023-04-01T08:38:38;9.3;89.2
67893;DHT22;54688;52.376;16.744;2023-04-01T08:41:51;9.3;88.9
67893;DHT22;54688;52.376;16.744;2023-04-01T08:45:42;9.3;88.2
67893;DHT22;54688;52.376;16.744;2023-04-01T08:48:54;9.3;88.9
67893;DHT22;54688;52.376;16.744;2023-04-01T08:52:40;9.3;88.8
67893;DHT22;54688;52.376;16.744;2023-04-01T08:55:55;9.4;88.3
67893;DHT22;54688;52.376;16.744;2023-04-01T08:59:11;9.4;88.9
67893;DHT22;54688;52.376;16.744;2023-04-01T09:02:32;9.5;89.1
67893;DHT22;54688;52.376;16.744;2023-04-01T09:05:43;9.7;89.4
67893;DHT22;54688;52.376;16.744;2023-04-01T09:09:09;9.8;88.4
67893;DHT22;54688;52.376;16.744;2023-04-01T09:12:30;9.9;88.5
67893;DHT22;54688;52.376;16.744;2023-04-01T09:16:49;9.9;87.8
67893;DHT22;54688;52.376;16.744;2023-04-01T09:20:08;10;87.2
67893;DHT22;54688;52.376;16.744;2023-04-01T09:23:27;10;86
67893;DHT22;54688;52.376;16.744;2023-04-01T09:26:43;10;86.1
67893;DHT22;54688;52.376;16.744;2023-04-01T09:30:06;10;85.5
67893;DHT22;54688;52.376;16.744;2023-04-01T09:35:38;10.1;86.3
67893;DHT22;54688;52.376;16.744;2023-04-01T09:38:49;10.1;85.4
67893;DHT22;54688;52.376;16.744;2023-04-01T09:42:06;10.2;86.1
67893;DHT22;54688;52.376;16.744;2023-04-01T09:45:20;10.2;84.3
67893;DHT22;54688;52.376;16.744;2023-04-01T09:48:36;10.1;84.3
67893;DHT22;54688;52.376;16.744;2023-04-01T09:51:49;10.2;83.9
67893;DHT22;54688;52.376;16.744;2023-04-01T09:57:14;10.1;84.3
67893;DHT22;54688;52.376;16.744;2023-04-01T10:00:39;10.2;84.5
67893;DHT22;54688;52.376;16.744;2023-04-01T10:04:55;10.2;83.5
67893;DHT22;54688;52.376;16.744;2023-04-01T10:08:29;10.2;84.1
67893;DHT22;54688;52.376;16.744;2023-04-01T10:11:57;10.2;84.1
67893;DHT22;54688;52.376;16.744;2023-04-01T10:15:20;10.2;83.5
67893;DHT22;54688;52.376;16.744;2023-04-01T10:18:38;10.2;83.2
67893;DHT22;54688;52.376;16.744;2023-04-01T10:22:00;10.2;84.1
67893;DHT22;54688;52.376;16.744;2023-04-01T10:25:57;10.1;83.8
67893;DHT22;54688;52.376;16.744;2023-04-01T10:29:22;10.1;84.1
67893;DHT22;54688;52.376;16.744;2023-04-01T10:32:39;10;83.8
67893;DHT22;54688;52.376;16.744;2023-04-01T10:36:01;10;83.9
67893;DHT22;54688;52.376;16.744;2023-04-01T10:39:28;10;83.6
67893;DHT22;54688;52.376;16.744;2023-04-01T10:42:55;9.9;83.5
67893;DHT22;54688;52.376;16.744;2023-04-01T10:46:24;9.8;84
67893;DHT22;54688;52.376;16.744;2023-04-01T10:49:41;9.8;84.6
67893;DHT22;54688;52.376;16.744;2023-04-01T10:52:55;9.8;85.1
67893;DHT22;54688;52.376;16.744;2023-04-01T10:57:24;9.8;85
67893;DHT22;54688;52.376;16.744;2023-04-01T11:00:54;9.8;85.1
67893;DHT22;54688;52.376;16.744;2023-04-01T11:04:18;9.8;84.6
67893;DHT22;54688;52.376;16.744;2023-04-01T11:07:53;9.7;83.6
67893;DHT22;54688;52.376;16.744;2023-04-01T11:11:23;9.6;83.6
67893;DHT22;54688;52.376;16.744;2023-04-01T11:14:53;9.6;84.6
67893;DHT22;54688;52.376;16.744;2023-04-01T11:18:21;9.7;84.8
67893;DHT22;54688;52.376;16.744;2023-04-01T11:21:56;9.8;84.7
67893;DHT22;54688;52.376;16.744;2023-04-01T11:25:14;9.8;84.7
67893;DHT22;54688;52.376;16.744;2023-04-01T11:28:25;9.9;84.7
67893;DHT22;54688;52.376;16.744;2023-04-01T11:31:43;10;84.2
67893;DHT22;54688;52.376;16.744;2023-04-01T11:34:56;10.2;83.3
67893;DHT22;54688;52.376;16.744;2023-04-01T11:38:15;10.2;82.8
67893;DHT22;54688;52.376;16.744;2023-04-01T11:41:27;10.2;82.1
67893;DHT22;54688;52.376;16.744;2023-04-01T11:44:39;10.1;82.5
67893;DHT22;54688;52.376;16.744;2023-04-01T11:47:48;10.1;81.4
67893;DHT22;54688;52.376;16.744;2023-04-01T11:52:05;10;80.8
67893;DHT22;54688;52.376;16.744;2023-04-01T11:55:19;9.8;80.6
67893;DHT22;54688;52.376;16.744;2023-04-01T11:58:35;9.5;82
67893;DHT22;54688;52.376;16.744;2023-04-01T12:01:49;9.4;82.4
67893;DHT22;54688;52.376;16.744;2023-04-01T12:05:03;9.2;82.6
67893;DHT22;54688;52.376;16.744;2023-04-01T12:08:20;9;83.2
67893;DHT22;54688;52.376;16.744;2023-04-01T12:11:32;8.9;83.3
67893;DHT22;54688;52.376;16.744;2023-04-01T12:14:40;8.8;84
67893;DHT22;54688;52.376;16.744;2023-04-01T12:17:48;8.8;84.4
67893;DHT22;54688;52.376;16.744;2023-04-01T12:20:56;8.8;85
67893;DHT22;54688;52.376;16.744;2023-04-01T12:24:06;8.7;84.6
67893;DHT22;54688;52.376;16.744;2023-04-01T12:27:26;8.7;85
67893;DHT22;54688;52.376;16.744;2023-04-01T12:30:39;8.6;84.7
67893;DHT22;54688;52.376;16.744;2023-04-01T12:33:51;8.5;84.8
67893;DHT22;54688;52.376;16.744;2023-04-01T12:37:00;8.5;84.7
67893;DHT22;54688;52.376;16.744;2023-04-01T12:40:17;8.5;85.2
67893;DHT22;54688;52.376;16.744;2023-04-01T12:46:30;8.3;85
67893;DHT22;54688;52.376;16.744;2023-04-01T12:49:43;8.3;85.2
67893;DHT22;54688;52.376;16.744;2023-04-01T12:53:01;8.3;85.7
67893;DHT22;54688;52.376;16.744;2023-04-01T12:56:17;8.3;85.8
67893;DHT22;54688;52.376;16.744;2023-04-01T12:59:32;8.3;85.3
67893;DHT22;54688;52.376;16.744;2023-04-01T13:02:48;8.3;85.3
67893;DHT22;54688;52.376;16.744;2023-04-01T13:07:10;8.4;85.6
67893;DHT22;54688;52.376;16.744;2023-04-01T13:10:27;8.5;85.5
67893;DHT22;54688;52.376;16.744;2023-04-01T13:13:46;8.6;84.7
67893;DHT22;54688;52.376;16.744;2023-04-01T13:16:56;8.7;84.3
67893;DHT22;54688;52.376;16.744;2023-04-01T13:20:06;8.9;84.6
67893;DHT22;54688;52.376;16.744;2023-04-01T13:23:20;9;83.8
67893;DHT22;54688;52.376;16.744;2023-04-01T13:26:34;9;83.4
67893;DHT22;54688;52.376;16.744;2023-04-01T13:29:43;9;82.3
67893;DHT22;54688;52.376;16.744;2023-04-01T13:32:49;9;82
67893;DHT22;54688;52.376;16.744;2023-04-01T13:36:01;9;80.9
67893;DHT22;54688;52.376;16.744;2023-04-01T13:39:15;8.9;81.6
67893;DHT22;54688;52.376;16.744;2023-04-01T13:42:26;8.9;81.8
67893;DHT22;54688;52.376;16.744;2023-04-01T13:45:38;8.9;81.5
67893;DHT22;54688;52.376;16.744;2023-04-01T13:48:58;8.9;81.5
67893;DHT22;54688;52.376;16.744;2023-04-01T13:52:23;8.8;81.5
67893;DHT22;54688;52.376;16.744;2023-04-01T13:55:39;8.8;81.3
67893;DHT22;54688;52.376;16.744;2023-04-01T13:59:32;8.9;82.3
67893;DHT22;54688;52.376;16.744;2023-04-01T14:02:51;8.8;81.4
67893;DHT22;54688;52.376;16.744;2023-04-01T14:06:06;8.8;81.3
67893;DHT22;54688;52.376;16.744;2023-04-01T14:09:20;8.8;80.7
67893;DHT22;54688;52.376;16.744;2023-04-01T14:12:31;8.7;79.9
67893;DHT22;54688;52.376;16.744;2023-04-01T14:15:47;8.6;79.8
67893;DHT22;54688;52.376;16.744;2023-04-01T14:19:03;8.5;79.1
67893;DHT22;54688;52.376;16.744;2023-04-01T14:22:18;8.4;80.1
67893;DHT22;54688;52.376;16.744;2023-04-01T14:25:33;8.3;80.5
67893;DHT22;54688;52.376;16.744;2023-04-01T14:28:49;8.3;81.8
67893;DHT22;54688;52.376;16.744;2023-04-01T14:31:59;8.4;81.4
67893;DHT22;54688;52.376;16.744;2023-04-01T14:35:13;8.4;81.6
67893;DHT22;54688;52.376;16.744;2023-04-01T14:38:28;8.4;81.4
67893;DHT22;54688;52.376;16.744;2023-04-01T14:41:42;8.4;81.5
67893;DHT22;54688;52.376;16.744;2023-04-01T14:44:52;8.4;81.3
67893;DHT22;54688;52.376;16.744;2023-04-01T14:48:05;8.4;80.5
67893;DHT22;54688;52.376;16.744;2023-04-01T14:51:18;8.4;80.7
67893;DHT22;54688;52.376;16.744;2023-04-01T14:54:29;8.3;80.6
67893;DHT22;54688;52.376;16.744;2023-04-01T14:57:34;8.2;80.5
67893;DHT22;54688;52.376;16.744;2023-04-01T15:00:41;8.2;81.1
67893;DHT22;54688;52.376;16.744;2023-04-01T15:03:51;8.2;81.3
67893;DHT22;54688;52.376;16.744;2023-04-01T15:07:06;8.2;80.6
67893;DHT22;54688;52.376;16.744;2023-04-01T15:10:29;8.1;80.3
67893;DHT22;54688;52.376;16.744;2023-04-01T15:13:49;8.1;81.2
67893;DHT22;54688;52.376;16.744;2023-04-01T15:17:02;8.1;81.1
67893;DHT22;54688;52.376;16.744;2023-04-01T15:20:22;8.2;80.5
67893;DHT22;54688;52.376;16.744;2023-04-01T15:23:38;8.2;81.4
67893;DHT22;54688;52.376;16.744;2023-04-01T15:26:53;8.2;80.5
67893;DHT22;54688;52.376;16.744;2023-04-01T15:30:17;8.1;80.8
67893;DHT22;54688;52.376;16.744;2023-04-01T15:33:28;8.1;80.4
67893;DHT22;54688;52.376;16.744;2023-04-01T15:36:41;8.1;80.2
67893;DHT22;54688;52.376;16.744;2023-04-01T15:39:50;8.1;80.6
67893;DHT22;54688;52.376;16.744;2023-04-01T15:43:01;8;80.2
67893;DHT22;54688;52.376;16.744;2023-04-01T15:46:17;8;80.4
67893;DHT22;54688;52.376;16.744;2023-04-01T15:49:31;7.9;80.6
67893;DHT22;54688;52.376;16.744;2023-04-01T15:52:38;7.9;81
67893;DHT22;54688;52.376;16.744;2023-04-01T15:55:46;7.9;81.4
67893;DHT22;54688;52.376;16.744;2023-04-01T15:58:54;7.9;81.1
67893;DHT22;54688;52.376;16.744;2023-04-01T16:02:07;7.9;81.4
67893;DHT22;54688;52.376;16.744;2023-04-01T16:05:23;7.9;81.7
67893;DHT22;54688;52.376;16.744;2023-04-01T16:08:36;7.9;81
67893;DHT22;54688;52.376;16.744;2023-04-01T16:11:48;7.9;80.9
67893;DHT22;54688;52.376;16.744;2023-04-01T16:15:04;7.9;80.9
67893;DHT22;54688;52.376;16.744;2023-04-01T16:18:21;8;80.7
67893;DHT22;54688;52.376;16.744;2023-04-01T16:21:36;7.9;80.3
67893;DHT22;54688;52.376;16.744;2023-04-01T16:27:40;7.8;80.1
67893;DHT22;54688;52.376;16.744;2023-04-01T16:30:48;7.7;80.2
67893;DHT22;54688;52.376;16.744;2023-04-01T16:34:00;7.6;79.7
67893;DHT22;54688;52.376;16.744;2023-04-01T16:37:07;7.5;80.2
67893;DHT22;54688;52.376;16.744;2023-04-01T16:40:15;7.4;79.9
67893;DHT22;54688;52.376;16.744;2023-04-01T16:43:26;7.4;80.3
67893;DHT22;54688;52.376;16.744;2023-04-01T16:46:33;7.3;80.3
67893;DHT22;54688;52.376;16.744;2023-04-01T16:49:39;7.3;80.7
67893;DHT22;54688;52.376;16.744;2023-04-01T16:52:48;7.2;80.4
67893;DHT22;54688;52.376;16.744;2023-04-01T16:56:03;7.2;80.5
67893;DHT22;54688;52.376;16.744;2023-04-01T16:59:14;7.1;81.4
67893;DHT22;54688;52.376;16.744;2023-04-01T17:02:22;7.1;81.1
67893;DHT22;54688;52.376;16.744;2023-04-01T17:05:38;7;81
67893;DHT22;54688;52.376;16.744;2023-04-01T17:08:50;7;80.7
67893;DHT22;54688;52.376;16.744;2023-04-01T17:12:05;6.9;80.2
67893;DHT22;54688;52.376;16.744;2023-04-01T17:15:17;6.8;80.3
67893;DHT22;54688;52.376;16.744;2023-04-01T17:18:23;6.7;80.6
67893;DHT22;54688;52.376;16.744;2023-04-01T17:21:44;6.6;80.5
67893;DHT22;54688;52.376;16.744;2023-04-01T17:24:53;6.6;80.8
67893;DHT22;54688;52.376;16.744;2023-04-01T17:28:05;6.6;80.9
67893;DHT22;54688;52.376;16.744;2023-04-01T17:31:20;6.6;81.1
67893;DHT22;54688;52.376;16.744;2023-04-01T17:34:37;6.5;80.9
67893;DHT22;54688;52.376;16.744;2023-04-01T17:37:49;6.5;81.2
67893;DHT22;54688;52.376;16.744;2023-04-01T17:41:05;6.5;81.2
67893;DHT22;54688;52.376;16.744;2023-04-01T17:44:19;6.5;81.4
67893;DHT22;54688;52.376;16.744;2023-04-01T17:47:36;6.5;81
67893;DHT22;54688;52.376;16.744;2023-04-01T17:50:49;6.4;80.5
67893;DHT22;54688;52.376;16.744;2023-04-01T17:53:59;6.4;81.3
67893;DHT22;54688;52.376;16.744;2023-04-01T17:57:22;6.3;80.7
67893;DHT22;54688;52.376;16.744;2023-04-01T18:00:33;6.3;79.5
67893;DHT22;54688;52.376;16.744;2023-04-01T18:03:47;6.3;79.8
67893;DHT22;54688;52.376;16.744;2023-04-01T18:07:02;6.2;79.9
67893;DHT22;54688;52.376;16.744;2023-04-01T18:10:22;6.2;80
67893;DHT22;54688;52.376;16.744;2023-04-01T18:13:32;6.2;80.2
67893;DHT22;54688;52.376;16.744;2023-04-01T18:16:52;6.2;80.2
67893;DHT22;54688;52.376;16.744;2023-04-01T18:20:11;6.2;80.5
67893;DHT22;54688;52.376;16.744;2023-04-01T18:23:27;6.2;79.8
67893;DHT22;54688;52.376;16.744;2023-04-01T18:26:37;6.2;79.5
67893;DHT22;54688;52.376;16.744;2023-04-01T18:29:44;6.1;79.5
67893;DHT22;54688;52.376;16.744;2023-04-01T18:32:52;6;79
67893;DHT22;54688;52.376;16.744;2023-04-01T18:35:58;6;79.4
67893;DHT22;54688;52.376;16.744;2023-04-01T18:39:11;6;79
67893;DHT22;54688;52.376;16.744;2023-04-01T18:42:19;5.9;79.2
67893;DHT22;54688;52.376;16.744;2023-04-01T18:45:33;5.9;79.1
67893;DHT22;54688;52.376;16.744;2023-04-01T18:48:41;5.8;78.9
67893;DHT22;54688;52.376;16.744;2023-04-01T18:51:51;5.8;78.9
67893;DHT22;54688;52.376;16.744;2023-04-01T18:55:29;5.7;78.8
67893;DHT22;54688;52.376;16.744;2023-04-01T18:58:42;5.7;78.7
67893;DHT22;54688;52.376;16.744;2023-04-01T19:01:52;5.6;78.6
67893;DHT22;54688;52.376;16.744;2023-04-01T19:05:04;5.6;79
67893;DHT22;54688;52.376;16.744;2023-04-01T19:08:14;5.6;78.8
67893;DHT22;54688;52.376;16.744;2023-04-01T19:11:23;5.5;79
67893;DHT22;54688;52.376;16.744;2023-04-01T19:14:44;5.5;79.6
67893;DHT22;54688;52.376;16.744;2023-04-01T19:17:58;5.5;79.4
67893;DHT22;54688;52.376;16.744;2023-04-01T19:21:14;5.5;79.1
67893;DHT22;54688;52.376;16.744;2023-04-01T19:24:23;5.5;79.6
67893;DHT22;54688;52.376;16.744;2023-04-01T19:27:40;5.4;79.3
67893;DHT22;54688;52.376;16.744;2023-04-01T19:30:50;5.3;78.6
67893;DHT22;54688;52.376;16.744;2023-04-01T19:33:59;5.3;78.9
67893;DHT22;54688;52.376;16.744;2023-04-01T19:37:11;5.2;78.9
67893;DHT22;54688;52.376;16.744;2023-04-01T19:40:44;5.2;79.4
67893;DHT22;54688;52.376;16.744;2023-04-01T19:43:54;5.1;79.6
67893;DHT22;54688;52.376;16.744;2023-04-01T19:47:05;5.1;79.7
67893;DHT22;54688;52.376;16.744;2023-04-01T19:50:20;5.1;80
67893;DHT22;54688;52.376;16.744;2023-04-01T19:53:31;5;80
67893;DHT22;54688;52.376;16.744;2023-04-01T19:56:41;4.9;78.9
67893;DHT22;54688;52.376;16.744;2023-04-01T19:59:50;4.9;80.2
67893;DHT22;54688;52.376;16.744;2023-04-01T20:02:57;4.9;80.6
67893;DHT22;54688;52.376;16.744;2023-04-01T20:09:07;4.9;81.3
67893;DHT22;54688;52.376;16.744;2023-04-01T20:12:17;4.8;81.3
67893;DHT22;54688;52.376;16.744;2023-04-01T20:15:31;4.8;81.7
67893;DHT22;54688;52.376;16.744;2023-04-01T20:18:38;4.8;81.9
67893;DHT22;54688;52.376;16.744;2023-04-01T20:21:47;4.8;82.3
67893;DHT22;54688;52.376;16.744;2023-04-01T20:24:49;4.7;82.2
67893;DHT22;54688;52.376;16.744;2023-04-01T20:27:54;4.7;82.5
67893;DHT22;54688;52.376;16.744;2023-04-01T20:31:01;4.7;82.8
67893;DHT22;54688;52.376;16.744;2023-04-01T20:34:22;4.7;82.8
67893;DHT22;54688;52.376;16.744;2023-04-01T20:37:35;4.7;82.2
67893;DHT22;54688;52.376;16.744;2023-04-01T20:40:42;4.6;82.1
67893;DHT22;54688;52.376;16.744;2023-04-01T20:43:50;4.6;82.1
67893;DHT22;54688;52.376;16.744;2023-04-01T20:49:59;4.5;82.5
67893;DHT22;54688;52.376;16.744;2023-04-01T20:53:11;4.4;81.6
67893;DHT22;54688;52.376;16.744;2023-04-01T20:56:23;4.4;82
67893;DHT22;54688;52.376;16.744;2023-04-01T20:59:39;4.4;82.4
67893;DHT22;54688;52.376;16.744;2023-04-01T21:02:56;4.4;82.6
67893;DHT22;54688;52.376;16.744;2023-04-01T21:06:16;4.4;82.8
67893;DHT22;54688;52.376;16.744;2023-04-01T21:09:32;4.4;82.3
67893;DHT22;54688;52.376;16.744;2023-04-01T21:12:46;4.3;82.4
67893;DHT22;54688;52.376;16.744;2023-04-01T21:15:57;4.3;82.3
67893;DHT22;54688;52.376;16.744;2023-04-01T21:19:11;4.3;82.3
67893;DHT22;54688;52.376;16.744;2023-04-01T21:22:31;4.3;82.1
67893;DHT22;54688;52.376;16.744;2023-04-01T21:26:02;4.2;82.3
67893;DHT22;54688;52.376;16.744;2023-04-01T21:29:17;4.2;81.9